createdAt,value
2023-04-26T00:00:53.520Z,5.70
2023-04-26T00:05:55.649Z,5.40
2023-04-26T00:10:57.490Z,5.10
2023-04-26T00:15:59.632Z,5.10
2023-04-26T00:21:01.532Z,5.20
2023-04-26T00:26:03.826Z,5.10
2023-04-26T00:31:05.785Z,4.90
2023-04-26T00:36:07.872Z,4.80
2023-04-26T00:41:10.151Z,4.80
2023-04-26T00:46:12.597Z,4.80
2023-04-26T00:51:15.490Z,4.60
2023-04-26T00:56:17.437Z,4.50
2023-04-26T01:01:21.415Z,4.50
2023-04-26T01:06:23.742Z,4.40
2023-04-26T01:11:25.613Z,4.50
2023-04-26T01:16:28.398Z,4.40
2023-04-26T01:21:30.214Z,4.20
2023-04-26T01:26:32.284Z,4.10
2023-04-26T01:31:34.225Z,4.10
2023-04-26T01:36:36.219Z,4.00
2023-04-26T01:41:38.038Z,4.00
2023-04-26T01:46:39.952Z,4.00
2023-04-26T01:51:41.766Z,3.80
2023-04-26T01:56:43.556Z,3.80
2023-04-26T02:01:45.428Z,3.80
2023-04-26T02:06:47.290Z,3.80
2023-04-26T02:11:49.182Z,3.70
2023-04-26T02:16:51.913Z,3.60
2023-04-26T02:21:58.559Z,3.70
2023-04-26T02:27:03.744Z,3.40
2023-04-26T02:32:05.807Z,3.40
2023-04-26T02:37:07.743Z,3.40
2023-04-26T02:42:13.375Z,3.20
2023-04-26T02:47:16.814Z,3.10
2023-04-26T02:52:18.737Z,3.10
2023-04-26T02:57:20.538Z,3.10
2023-04-26T03:02:22.465Z,3.20
2023-04-26T03:07:24.651Z,3.30
2023-04-26T03:12:26.976Z,3.20
2023-04-26T03:17:28.956Z,3.20
2023-04-26T03:22:31.561Z,3.20
2023-04-26T03:27:33.837Z,3.20
2023-04-26T03:32:36.040Z,3.00
2023-04-26T03:37:39.843Z,3.00
2023-04-26T03:42:44.544Z,3.00
2023-04-26T03:47:46.634Z,3.00
2023-04-26T03:52:48.784Z,2.90
2023-04-26T03:57:50.918Z,2.90
2023-04-26T04:02:52.981Z,2.80
2023-04-26T04:07:59.701Z,2.80
2023-04-26T04:13:01.906Z,2.70
2023-04-26T04:18:05.187Z,2.70
2023-04-26T04:23:07.930Z,2.60
2023-04-26T04:28:11.987Z,2.60
2023-04-26T04:33:14.118Z,2.50
2023-04-26T04:38:15.945Z,2.20
2023-04-26T04:43:18.227Z,2.10
2023-04-26T04:48:21.345Z,2.30
2023-04-26T04:53:23.883Z,2.50
2023-04-26T04:58:25.812Z,2.50
2023-04-26T05:03:27.765Z,2.70
2023-04-26T05:08:29.877Z,2.90
2023-04-26T05:13:34.598Z,3.90
2023-04-26T05:18:36.771Z,4.80
2023-04-26T05:23:39.038Z,5.30
2023-04-26T05:28:41.559Z,6.70
2023-04-26T05:34:01.711Z,8.40
2023-04-26T05:39:12.407Z,8.80
2023-04-26T05:44:14.843Z,8.30
2023-04-26T05:49:16.745Z,7.70
2023-04-26T05:54:19.478Z,7.00
2023-04-26T05:59:21.389Z,6.50
2023-04-26T06:04:24.446Z,6.20
2023-04-26T06:09:37.901Z,6.30
2023-04-26T06:14:39.751Z,6.20
2023-04-26T06:19:46.110Z,6.30
2023-04-26T06:24:48.003Z,6.80
2023-04-26T06:29:50.528Z,7.10
2023-04-26T06:34:53.106Z,7.30
2023-04-26T06:39:55.933Z,7.20
2023-04-26T06:44:58.874Z,7.40
2023-04-26T06:50:01.345Z,8.00
2023-04-26T06:55:03.927Z,8.40
2023-04-26T07:00:06.436Z,9.10
2023-04-26T07:05:08.921Z,9.40
2023-04-26T07:10:11.073Z,9.30
2023-04-26T07:15:13.162Z,9.50
2023-04-26T07:20:19.662Z,9.30
2023-04-26T07:25:21.810Z,9.30
2023-04-26T07:30:24.151Z,9.90
2023-04-26T07:35:26.089Z,10.40
2023-04-26T07:40:29.287Z,10.60
2023-04-26T07:45:32.606Z,10.80
2023-04-26T07:50:34.524Z,10.60
2023-04-26T07:55:37.596Z,10.90
2023-04-26T08:00:40.043Z,11.00
2023-04-26T08:05:42.177Z,11.20
2023-04-26T08:10:44.070Z,11.30
2023-04-26T08:15:45.860Z,10.80
2023-04-26T08:20:47.643Z,10.50
2023-04-26T08:25:52.488Z,10.30
2023-04-26T08:30:54.280Z,10.60
2023-04-26T08:35:56.649Z,10.90
2023-04-26T08:41:02.025Z,11.30
2023-04-26T08:46:07.558Z,11.40
2023-04-26T08:51:12.953Z,10.70
2023-04-26T08:56:14.805Z,10.20
2023-04-26T09:01:18.426Z,10.00
2023-04-26T09:06:20.698Z,10.30
2023-04-26T09:11:22.470Z,10.80
2023-04-26T09:16:37.288Z,10.90
2023-04-26T09:21:47.132Z,10.50
2023-04-26T09:27:01.574Z,10.00
2023-04-26T09:32:03.843Z,10.00
2023-04-26T09:37:05.831Z,9.80
2023-04-26T09:42:08.895Z,10.00
2023-04-26T09:47:12.367Z,10.20
2023-04-26T09:52:15.646Z,9.90
2023-04-26T09:57:19.637Z,9.90
2023-04-26T10:02:26.704Z,9.90
2023-04-26T10:07:30.580Z,9.60
2023-04-26T10:12:32.420Z,10.00
2023-04-26T10:17:34.229Z,10.20
2023-04-26T10:23:01.448Z,9.90
2023-04-26T10:28:03.551Z,9.90
2023-04-26T10:33:08.414Z,10.40
2023-04-26T10:38:10.472Z,10.40
2023-04-26T10:43:13.641Z,10.30
2023-04-26T10:48:19.776Z,10.30
2023-04-26T10:53:21.747Z,10.70
2023-04-26T10:58:29.995Z,11.30
2023-04-26T11:03:32.376Z,11.70
2023-04-26T11:08:36.431Z,11.50
2023-04-26T11:13:40.553Z,11.10
2023-04-26T11:18:44.433Z,11.10
2023-04-26T11:23:55.777Z,11.00
2023-04-26T11:28:57.596Z,10.90
2023-04-26T11:34:05.689Z,10.50
2023-04-26T11:39:07.375Z,10.40
2023-04-26T11:44:11.903Z,10.30
2023-04-26T11:49:14.145Z,10.20
2023-04-26T11:54:30.224Z,10.30
2023-04-26T11:59:32.202Z,10.50
2023-04-26T12:04:34.348Z,10.50
2023-04-26T12:09:42.644Z,10.50
2023-04-26T12:14:46.874Z,10.60
2023-04-26T12:19:50.321Z,10.50
2023-04-26T12:25:05.367Z,10.60
2023-04-26T12:30:07.805Z,10.90
2023-04-26T12:35:09.712Z,11.20
2023-04-26T12:40:12.411Z,11.20
2023-04-26T12:45:14.450Z,11.20
2023-04-26T12:50:17.972Z,11.20
2023-04-26T12:55:20.720Z,11.20
2023-04-26T13:00:22.710Z,11.20
2023-04-26T13:05:25.922Z,11.20
2023-04-26T13:10:28.039Z,11.20
2023-04-26T13:15:30.081Z,11.20
2023-04-26T13:20:33.285Z,11.40
2023-04-26T13:25:35.126Z,11.40
2023-04-26T13:30:36.955Z,11.10
2023-04-26T13:35:38.807Z,11.00
2023-04-26T13:40:40.609Z,11.10
2023-04-26T13:45:43.213Z,10.90
2023-04-26T13:50:44.985Z,11.00
2023-04-26T13:55:46.728Z,11.00
2023-04-26T14:00:48.844Z,11.10
2023-04-26T14:05:50.833Z,11.30
2023-04-26T14:10:53.185Z,11.30
2023-04-26T14:15:54.947Z,11.20
2023-04-26T14:20:56.850Z,11.30
2023-04-26T14:25:58.866Z,11.50
2023-04-26T14:31:01.008Z,11.70
2023-04-26T14:36:02.897Z,11.60
2023-04-26T14:41:04.958Z,11.40
2023-04-26T14:46:07.975Z,11.50
2023-04-26T14:51:09.801Z,11.60
2023-04-26T14:56:11.573Z,11.70
2023-04-26T15:01:13.700Z,11.60
2023-04-26T15:06:15.511Z,11.70
2023-04-26T15:11:17.238Z,11.70
2023-04-26T15:16:19.349Z,11.50
2023-04-26T15:21:21.246Z,11.60
2023-04-26T15:26:23.396Z,11.70
2023-04-26T15:31:25.281Z,11.70
2023-04-26T15:36:28.198Z,11.70
2023-04-26T15:41:30.052Z,11.60
2023-04-26T15:46:31.920Z,11.60
2023-04-26T15:51:33.787Z,11.40
2023-04-26T15:56:36.318Z,11.10
2023-04-26T16:01:38.167Z,11.10
2023-04-26T16:06:40.115Z,11.00
2023-04-26T16:11:42.334Z,10.90
2023-04-26T16:16:46.019Z,10.80
2023-04-26T16:21:47.974Z,10.60
2023-04-26T16:26:49.870Z,10.50
2023-04-26T16:31:52.526Z,10.50
2023-04-26T16:36:54.596Z,10.40
2023-04-26T16:41:56.395Z,10.30
2023-04-26T16:46:59.334Z,10.20
2023-04-26T16:52:01.743Z,10.10
2023-04-26T16:57:04.522Z,10.10
2023-04-26T17:02:06.747Z,10.00
2023-04-26T17:07:08.636Z,9.90
2023-04-26T17:12:10.483Z,9.70
2023-04-26T17:17:12.619Z,9.50
2023-04-26T17:22:14.451Z,9.20
2023-04-26T17:27:16.629Z,9.00
2023-04-26T17:32:18.415Z,9.10
2023-04-26T17:37:20.540Z,9.00
2023-04-26T17:42:22.307Z,9.00
2023-04-26T17:47:24.160Z,9.10
2023-04-26T17:52:26.815Z,9.00
2023-04-26T17:57:28.630Z,8.90
2023-04-26T18:02:30.533Z,8.70
2023-04-26T18:07:32.387Z,8.60
2023-04-26T18:12:34.345Z,8.40
2023-04-26T18:17:36.309Z,8.20
2023-04-26T18:22:38.213Z,7.80
2023-04-26T18:27:40.042Z,7.50
2023-04-26T18:32:41.886Z,7.30
2023-04-26T18:37:43.706Z,7.10
2023-04-26T18:42:45.519Z,6.90
2023-04-26T18:47:47.502Z,6.70
2023-04-26T18:52:49.236Z,6.70
2023-04-26T18:57:51.475Z,6.70
2023-04-26T19:02:54.719Z,6.60
2023-04-26T19:07:56.645Z,6.60
2023-04-26T19:12:58.403Z,6.60
2023-04-26T19:18:00.236Z,6.60
2023-04-26T19:23:02.162Z,6.60
2023-04-26T19:28:04.402Z,6.60
2023-04-26T19:33:06.235Z,6.60
2023-04-26T19:38:09.839Z,6.50
2023-04-26T19:43:11.996Z,6.40
2023-04-26T19:48:13.866Z,6.30
2023-04-26T19:53:15.634Z,6.30
2023-04-26T19:58:17.562Z,6.30
2023-04-26T20:03:19.397Z,6.20
2023-04-26T20:08:21.211Z,6.20
2023-04-26T20:13:23.170Z,6.10
2023-04-26T20:18:25.332Z,6.10
2023-04-26T20:23:27.382Z,6.10
2023-04-26T20:28:29.293Z,6.00
2023-04-26T20:33:31.239Z,5.90
2023-04-26T20:38:33.424Z,5.80
2023-04-26T20:43:35.397Z,5.60
2023-04-26T20:48:37.574Z,5.50
2023-04-26T20:53:39.752Z,5.40
2023-04-26T20:58:41.595Z,5.20
2023-04-26T21:03:43.595Z,5.20
2023-04-26T21:08:46.249Z,5.10
2023-04-26T21:13:48.229Z,5.00
2023-04-26T21:18:50.890Z,4.90
2023-04-26T21:23:52.726Z,4.80
2023-04-26T21:28:54.628Z,4.80
2023-04-26T21:33:56.628Z,4.70
2023-04-26T21:38:58.480Z,4.60
2023-04-26T21:44:00.209Z,4.50
2023-04-26T21:49:01.977Z,4.50
2023-04-26T21:54:03.794Z,4.30
2023-04-26T21:59:05.522Z,4.30
2023-04-26T22:04:07.401Z,4.30
2023-04-26T22:09:10.132Z,4.30
2023-04-26T22:14:12.172Z,4.50
2023-04-26T22:19:14.272Z,4.50
2023-04-26T22:24:16.153Z,4.60
2023-04-26T22:29:17.904Z,4.60
2023-04-26T22:34:20.355Z,4.60
2023-04-26T22:39:22.471Z,4.70
2023-04-26T22:44:24.250Z,4.70
2023-04-26T22:49:26.795Z,4.70
2023-04-26T22:54:28.546Z,4.70
2023-04-26T22:59:34.092Z,4.70
2023-04-26T23:04:36.074Z,4.70
2023-04-26T23:09:37.878Z,4.70
2023-04-26T23:14:39.662Z,4.80
2023-04-26T23:19:42.247Z,4.70
2023-04-26T23:24:44.200Z,4.80
2023-04-26T23:29:46.000Z,4.80
2023-04-26T23:34:47.719Z,4.80
2023-04-26T23:39:49.542Z,4.90
2023-04-26T23:44:51.336Z,4.90
2023-04-26T23:49:53.102Z,4.90
2023-04-26T23:54:54.894Z,4.90
2023-04-26T23:59:56.673Z,4.90
